sensor_id;sensor_type;location;lat;lon;timestamp;pressure;altitude;pressure_sealevel;temperature;humidity
11440;BME280;5776;51.814;4.510;2023-03-13T00:00:55;100176.66;;;7.89;100.00
11440;BME280;5776;51.814;4.510;2023-03-13T00:03:21;100166.66;;;7.90;100.00
11440;BME280;5776;51.814;4.510;2023-03-13T00:05:47;100156.66;;;7.90;100.00
11440;BME280;5776;51.814;4.510;2023-03-13T00:08:13;100156.66;;;7.90;100.00
11440;BME280;5776;51.814;4.510;2023-03-13T00:10:40;100142.84;;;7.92;100.00
11440;BME280;5776;51.814;4.510;2023-03-13T00:13:07;100138.53;;;7.91;100.00
11440;BME280;5776;51.814;4.510;2023-03-13T00:15:33;100127.41;;;7.92;100.00
11440;BME280;5776;51.814;4.510;2023-03-13T00:17:59;100127.41;;;7.92;100.00
11440;BME280;5776;51.814;4.510;2023-03-13T00:20:25;100115.53;;;7.93;100.00
11440;BME280;5776;51.814;4.510;2023-03-13T00:22:51;100117.44;;;7.93;100.00
11440;BME280;5776;51.814;4.510;2023-03-13T00:25:17;100104.19;;;7.91;100.00
11440;BME280;5776;51.814;4.510;2023-03-13T00:27:43;100105.78;;;7.92;100.00
11440;BME280;5776;51.814;4.510;2023-03-13T00:30:09;100095.50;;;7.94;100.00
11440;BME280;5776;51.814;4.510;2023-03-13T00:32:43;100080.38;;;7.93;100.00
11440;BME280;5776;51.814;4.510;2023-03-13T00:35:14;100086.31;;;7.95;100.00
11440;BME280;5776;51.814;4.510;2023-03-13T00:37:41;100079.25;;;7.94;100.00
11440;BME280;5776;51.814;4.510;2023-03-13T00:40:08;100067.06;;;7.97;100.00
11440;BME280;5776;51.814;4.510;2023-03-13T00:42:34;100068.97;;;7.96;100.00
11440;BME280;5776;51.814;4.510;2023-03-13T00:45:01;100061.66;;;7.97;100.00
11440;BME280;5776;51.814;4.510;2023-03-13T00:47:27;100060.28;;;7.99;100.00
11440;BME280;5776;51.814;4.510;2023-03-13T00:49:53;100040.81;;;7.97;100.00
11440;BME280;5776;51.814;4.510;2023-03-13T00:52:19;100044.03;;;7.99;100.00
11440;BME280;5776;51.814;4.510;2023-03-13T00:54:45;100026.75;;;8.00;100.00
11440;BME280;5776;51.814;4.510;2023-03-13T00:57:11;100033.75;;;8.01;100.00
11440;BME280;5776;51.814;4.510;2023-03-13T00:59:37;100026.75;;;8.00;100.00
11440;BME280;5776;51.814;4.510;2023-03-13T01:02:03;100020.22;;;8.01;100.00
11440;BME280;5776;51.814;4.510;2023-03-13T01:04:28;100014.81;;;8.01;100.00
11440;BME280;5776;51.814;4.510;2023-03-13T01:06:54;100014.03;;;8.01;100.00
11440;BME280;5776;51.814;4.510;2023-03-13T01:09:20;100011.03;;;8.03;100.00
11440;BME280;5776;51.814;4.510;2023-03-13T01:11:46;99999.91;;;8.04;100.00
11440;BME280;5776;51.814;4.510;2023-03-13T01:14:15;99994.00;;;8.02;100.00
11440;BME280;5776;51.814;4.510;2023-03-13T01:16:41;99992.91;;;8.03;100.00
11440;BME280;5776;51.814;4.510;2023-03-13T01:19:10;99991.00;;;8.04;100.00
11440;BME280;5776;51.814;4.510;2023-03-13T01:21:35;99978.00;;;8.06;100.00
11440;BME280;5776;51.814;4.510;2023-03-13T01:24:02;99976.91;;;8.07;100.00
11440;BME280;5776;51.814;4.510;2023-03-13T01:26:29;99972.28;;;8.07;100.00
11440;BME280;5776;51.814;4.510;2023-03-13T01:28:55;99974.19;;;8.07;100.00
11440;BME280;5776;51.814;4.510;2023-03-13T01:31:29;99965.00;;;8.08;100.00
11440;BME280;5776;51.814;4.510;2023-03-13T01:33:58;99949.84;;;8.07;100.00
11440;BME280;5776;51.814;4.510;2023-03-13T01:36:25;99940.34;;;8.09;100.00
11440;BME280;5776;51.814;4.510;2023-03-13T01:38:53;99946.56;;;8.10;100.00
11440;BME280;5776;51.814;4.510;2023-03-13T01:41:20;99931.94;;;8.11;100.00
11440;BME280;5776;51.814;4.510;2023-03-13T01:43:47;99925.44;;;8.12;100.00
11440;BME280;5776;51.814;4.510;2023-03-13T01:51:17;99909.13;;;8.17;100.00
11440;BME280;5776;51.814;4.510;2023-03-13T01:53:48;99907.53;;;8.16;100.00
11440;BME280;5776;51.814;4.510;2023-03-13T01:56:19;99892.09;;;8.16;100.00
11440;BME280;5776;51.814;4.510;2023-03-13T01:58:48;99882.06;;;8.17;100.00
11440;BME280;5776;51.814;4.510;2023-03-13T02:01:16;99884.19;;;8.20;100.00
11440;BME280;5776;51.814;4.510;2023-03-13T02:03:43;99879.59;;;8.20;100.00
11440;BME280;5776;51.814;4.510;2023-03-13T02:06:09;99872.28;;;8.21;100.00
11440;BME280;5776;51.814;4.510;2023-03-13T02:08:40;99866.28;;;8.24;100.00
11440;BME280;5776;51.814;4.510;2023-03-13T02:11:24;99857.66;;;8.22;100.00
11440;BME280;5776;51.814;4.510;2023-03-13T02:13:52;99857.09;;;8.25;100.00
11440;BME280;5776;51.814;4.510;2023-03-13T02:16:20;99864.09;;;8.26;100.00
11440;BME280;5776;51.814;4.510;2023-03-13T02:18:47;99861.09;;;8.28;100.00
11440;BME280;5776;51.814;4.510;2023-03-13T02:21:30;99861.56;;;8.30;100.00
11440;BME280;5776;51.814;4.510;2023-03-13T02:24:24;99862.69;;;8.29;100.00
11440;BME280;5776;51.814;4.510;2023-03-13T02:26:52;99853.97;;;8.32;100.00
11440;BME280;5776;51.814;4.510;2023-03-13T02:29:18;99859.09;;;8.33;100.00
11440;BME280;5776;51.814;4.510;2023-03-13T02:31:46;99829.34;;;8.33;100.00
11440;BME280;5776;51.814;4.510;2023-03-13T02:34:14;99844.97;;;8.36;100.00
11440;BME280;5776;51.814;4.510;2023-03-13T02:36:43;99851.78;;;8.34;100.00
11440;BME280;5776;51.814;4.510;2023-03-13T02:39:10;99851.13;;;8.42;100.00
11440;BME280;5776;51.814;4.510;2023-03-13T02:41:39;99871.19;;;8.41;100.00
11440;BME280;5776;51.814;4.510;2023-03-13T02:44:06;99863.84;;;8.41;100.00
11440;BME280;5776;51.814;4.510;2023-03-13T02:46:46;99862.16;;;8.46;100.00
11440;BME280;5776;51.814;4.510;2023-03-13T02:49:20;99866.28;;;8.43;100.00
11440;BME280;5776;51.814;4.510;2023-03-13T02:51:46;99857.25;;;8.48;100.00
11440;BME280;5776;51.814;4.510;2023-03-13T02:54:17;99844.81;;;8.47;100.00
11440;BME280;5776;51.814;4.510;2023-03-13T02:56:46;99841.50;;;8.50;100.00
11440;BME280;5776;51.814;4.510;2023-03-13T02:59:14;99834.69;;;8.52;100.00
11440;BME280;5776;51.814;4.510;2023-03-13T03:01:40;99826.28;;;8.54;100.00
11440;BME280;5776;51.814;4.510;2023-03-13T03:04:06;99837.63;;;8.56;100.00
11440;BME280;5776;51.814;4.510;2023-03-13T03:06:31;99822.69;;;8.58;100.00
11440;BME280;5776;51.814;4.510;2023-03-13T03:08:57;99834.94;;;8.56;100.00
11440;BME280;5776;51.814;4.510;2023-03-13T03:11:23;99835.91;;;8.60;100.00
11440;BME280;5776;51.814;4.510;2023-03-13T03:13:49;99826.50;;;8.57;100.00
11440;BME280;5776;51.814;4.510;2023-03-13T03:16:15;99832.63;;;8.63;100.00
11440;BME280;5776;51.814;4.510;2023-03-13T03:18:43;99830.50;;;8.60;100.00
11440;BME280;5776;51.814;4.510;2023-03-13T03:21:09;99828.31;;;8.62;100.00
11440;BME280;5776;51.814;4.510;2023-03-13T03:23:36;99833.13;;;8.65;100.00
11440;BME280;5776;51.814;4.510;2023-03-13T03:26:03;99837.44;;;8.66;100.00
11440;BME280;5776;51.814;4.510;2023-03-13T03:28:30;99827.50;;;8.61;100.00
11440;BME280;5776;51.814;4.510;2023-03-13T03:30:56;99825.00;;;8.65;100.00
11440;BME280;5776;51.814;4.510;2023-03-13T03:33:22;99823.09;;;8.65;100.00
11440;BME280;5776;51.814;4.510;2023-03-13T03:35:48;99823.41;;;8.64;100.00
11440;BME280;5776;51.814;4.510;2023-03-13T03:38:15;99814.66;;;8.67;100.00
11440;BME280;5776;51.814;4.510;2023-03-13T03:40:41;99819.78;;;8.69;100.00
11440;BME280;5776;51.814;4.510;2023-03-13T03:43:07;99808.75;;;8.65;100.00
11440;BME280;5776;51.814;4.510;2023-03-13T03:45:33;99797.53;;;8.72;100.00
11440;BME280;5776;51.814;4.510;2023-03-13T03:47:59;99791.44;;;8.66;100.00
11440;BME280;5776;51.814;4.510;2023-03-13T03:50:26;99793.03;;;8.67;100.00
11440;BME280;5776;51.814;4.510;2023-03-13T03:52:51;99787.00;;;8.70;100.00
11440;BME280;5776;51.814;4.510;2023-03-13T03:55:18;99780.78;;;8.70;100.00
11440;BME280;5776;51.814;4.510;2023-03-13T03:57:45;99793.25;;;8.71;100.00
11440;BME280;5776;51.814;4.510;2023-03-13T04:00:11;99795.44;;;8.69;100.00
11440;BME280;5776;51.814;4.510;2023-03-13T04:02:39;99782.41;;;8.71;100.00
11440;BME280;5776;51.814;4.510;2023-03-13T04:05:05;99779.88;;;8.74;100.00
11440;BME280;5776;51.814;4.510;2023-03-13T04:07:31;99782.88;;;8.73;100.00
11440;BME280;5776;51.814;4.510;2023-03-13T04:09:57;99782.09;;;8.72;100.00
11440;BME280;5776;51.814;4.510;2023-03-13T04:12:22;99779.28;;;8.77;100.00
11440;BME280;5776;51.814;4.510;2023-03-13T04:14:48;99780.91;;;8.78;100.00
11440;BME280;5776;51.814;4.510;2023-03-13T04:17:14;99775.16;;;8.80;100.00
11440;BME280;5776;51.814;4.510;2023-03-13T04:19:40;99786.22;;;8.83;100.00
11440;BME280;5776;51.814;4.510;2023-03-13T04:22:06;99776.19;;;8.84;100.00
11440;BME280;5776;51.814;4.510;2023-03-13T04:24:32;99772.97;;;8.82;100.00
11440;BME280;5776;51.814;4.510;2023-03-13T04:26:58;99760.72;;;8.84;100.00
11440;BME280;5776;51.814;4.510;2023-03-13T04:29:24;99772.56;;;8.89;100.00
11440;BME280;5776;51.814;4.510;2023-03-13T04:31:50;99758.53;;;8.86;100.00
11440;BME280;5776;51.814;4.510;2023-03-13T04:34:16;99757.72;;;8.86;100.00
11440;BME280;5776;51.814;4.510;2023-03-13T04:36:42;99752.31;;;8.86;100.00
11440;BME280;5776;51.814;4.510;2023-03-13T04:39:08;99745.50;;;8.89;100.00
11440;BME280;5776;51.814;4.510;2023-03-13T04:41:34;99739.47;;;8.92;100.00
11440;BME280;5776;51.814;4.510;2023-03-13T04:44:00;99746.69;;;8.96;100.00
11440;BME280;5776;51.814;4.510;2023-03-13T04:46:26;99742.84;;;8.97;100.00
11440;BME280;5776;51.814;4.510;2023-03-13T04:48:52;99735.84;;;8.96;100.00
11440;BME280;5776;51.814;4.510;2023-03-13T04:51:18;99757.50;;;8.96;100.00
11440;BME280;5776;51.814;4.510;2023-03-13T04:53:43;99753.69;;;8.97;100.00
11440;BME280;5776;51.814;4.510;2023-03-13T04:56:11;99751.31;;;8.96;100.00
11440;BME280;5776;51.814;4.510;2023-03-13T04:58:41;99719.78;;;9.00;100.00
11440;BME280;5776;51.814;4.510;2023-03-13T05:01:07;99723.59;;;8.99;100.00
11440;BME280;5776;51.814;4.510;2023-03-13T05:03:33;99724.09;;;9.01;100.00
11440;BME280;5776;51.814;4.510;2023-03-13T05:05:58;99715.97;;;9.01;100.00
11440;BME280;5776;51.814;4.510;2023-03-13T05:08:24;99715.56;;;9.07;100.00
11440;BME280;5776;51.814;4.510;2023-03-13T05:10:50;99716.38;;;9.08;100.00
11440;BME280;5776;51.814;4.510;2023-03-13T05:13:16;99714.56;;;9.03;100.00
11440;BME280;5776;51.814;4.510;2023-03-13T05:15:42;99708.84;;;9.05;100.00
11440;BME280;5776;51.814;4.510;2023-03-13T05:18:08;99706.94;;;9.05;100.00
11440;BME280;5776;51.814;4.510;2023-03-13T05:20:34;99700.13;;;9.08;100.00
11440;BME280;5776;51.814;4.510;2023-03-13T05:23:00;99700.13;;;9.08;100.00
11440;BME280;5776;51.814;4.510;2023-03-13T05:25:26;99684.66;;;9.08;100.00
11440;BME280;5776;51.814;4.510;2023-03-13T05:27:52;99686.25;;;9.09;100.00
11440;BME280;5776;51.814;4.510;2023-03-13T05:30:18;99688.66;;;9.11;100.00
11440;BME280;5776;51.814;4.510;2023-03-13T05:32:44;99674.00;;;9.12;100.00
11440;BME280;5776;51.814;4.510;2023-03-13T05:35:10;99682.94;;;9.13;100.00
11440;BME280;5776;51.814;4.510;2023-03-13T05:37:36;99688.84;;;9.15;100.00
11440;BME280;5776;51.814;4.510;2023-03-13T05:40:02;99680.09;;;9.18;100.00
11440;BME280;5776;51.814;4.510;2023-03-13T05:42:29;99689.06;;;9.18;100.00
11440;BME280;5776;51.814;4.510;2023-03-13T05:44:55;99678.50;;;9.17;100.00
11440;BME280;5776;51.814;4.510;2023-03-13T05:47:20;99681.72;;;9.19;100.00
11440;BME280;5776;51.814;4.510;2023-03-13T05:49:46;99669.75;;;9.20;100.00
11440;BME280;5776;51.814;4.510;2023-03-13T05:52:12;99680.31;;;9.21;100.00
11440;BME280;5776;51.814;4.510;2023-03-13T05:54:38;99683.81;;;9.22;100.00
11440;BME280;5776;51.814;4.510;2023-03-13T05:57:04;99683.81;;;9.22;100.00
11440;BME280;5776;51.814;4.510;2023-03-13T05:59:30;99679.38;;;9.26;100.00
11440;BME280;5776;51.814;4.510;2023-03-13T06:01:56;99676.97;;;9.24;100.00
11440;BME280;5776;51.814;4.510;2023-03-13T06:04:22;99681.59;;;9.24;100.00
11440;BME280;5776;51.814;4.510;2023-03-13T06:06:47;99674.56;;;9.23;100.00
11440;BME280;5776;51.814;4.510;2023-03-13T06:09:13;99685.09;;;9.24;100.00
11440;BME280;5776;51.814;4.510;2023-03-13T06:11:39;99688.59;;;9.25;100.00
11440;BME280;5776;51.814;4.510;2023-03-13T06:14:06;99677.47;;;9.26;100.00
11440;BME280;5776;51.814;4.510;2023-03-13T06:16:33;99688.00;;;9.28;100.00
11440;BME280;5776;51.814;4.510;2023-03-13T06:18:59;99673.06;;;9.30;100.00
11440;BME280;5776;51.814;4.510;2023-03-13T06:21:25;99668.72;;;9.29;100.00
11440;BME280;5776;51.814;4.510;2023-03-13T06:23:51;99683.56;;;9.32;100.00
11440;BME280;5776;51.814;4.510;2023-03-13T06:26:17;99697.91;;;9.33;100.00
11440;BME280;5776;51.814;4.510;2023-03-13T06:28:42;99694.72;;;9.30;100.00
11440;BME280;5776;51.814;4.510;2023-03-13T06:31:09;99687.56;;;9.35;100.00
11440;BME280;5776;51.814;4.510;2023-03-13T06:33:35;99691.41;;;9.34;100.00
11440;BME280;5776;51.814;4.510;2023-03-13T06:36:02;99685.97;;;9.34;100.00
11440;BME280;5776;51.814;4.510;2023-03-13T06:38:29;99690.59;;;9.33;100.00
11440;BME280;5776;51.814;4.510;2023-03-13T06:40:55;99694.59;;;9.36;100.00
11440;BME280;5776;51.814;4.510;2023-03-13T06:43:21;99692.69;;;9.36;100.00
11440;BME280;5776;51.814;4.510;2023-03-13T06:45:47;99694.59;;;9.36;100.00
11440;BME280;5776;51.814;4.510;2023-03-13T06:48:13;99702.75;;;9.36;100.00
11440;BME280;5776;51.814;4.510;2023-03-13T06:50:39;99698.41;;;9.35;100.00
11440;BME280;5776;51.814;4.510;2023-03-13T06:53:06;99689.19;;;9.36;100.00
11440;BME280;5776;51.814;4.510;2023-03-13T06:55:32;99690.78;;;9.37;100.00
11440;BME280;5776;51.814;4.510;2023-03-13T06:57:58;99694.00;;;9.39;100.00
11440;BME280;5776;51.814;4.510;2023-03-13T07:00:24;99685.84;;;9.39;100.00
11440;BME280;5776;51.814;4.510;2023-03-13T07:02:50;99692.88;;;9.40;100.00
11440;BME280;5776;51.814;4.510;2023-03-13T07:05:16;99697.19;;;9.41;100.00
11440;BME280;5776;51.814;4.510;2023-03-13T07:07:42;99690.94;;;9.40;100.00
11440;BME280;5776;51.814;4.510;2023-03-13T07:10:09;99687.16;;;9.41;100.00
11440;BME280;5776;51.814;4.510;2023-03-13T07:12:36;99681.72;;;9.41;100.00
11440;BME280;5776;51.814;4.510;2023-03-13T07:15:03;99679.81;;;9.42;100.00
11440;BME280;5776;51.814;4.510;2023-03-13T07:17:30;99678.69;;;9.43;100.00
11440;BME280;5776;51.814;4.510;2023-03-13T07:19:55;99683.53;;;9.46;100.00
11440;BME280;5776;51.814;4.510;2023-03-13T07:22:21;99690.03;;;9.45;100.00
11440;BME280;5776;51.814;4.510;2023-03-13T07:24:47;99676.47;;;9.45;100.00
11440;BME280;5776;51.814;4.510;2023-03-13T07:27:13;99688.94;;;9.46;100.00
11440;BME280;5776;51.814;4.510;2023-03-13T07:29:41;99673.78;;;9.45;100.00
11440;BME280;5776;51.814;4.510;2023-03-13T07:32:07;99685.09;;;9.47;100.00
11440;BME280;5776;51.814;4.510;2023-03-13T07:34:33;99679.69;;;9.47;100.00
11440;BME280;5776;51.814;4.510;2023-03-13T07:36:59;99686.69;;;9.48;100.00
11440;BME280;5776;51.814;4.510;2023-03-13T07:39:24;99681.28;;;9.48;100.00
11440;BME280;5776;51.814;4.510;2023-03-13T07:41:50;99685.59;;;9.49;100.00
11440;BME280;5776;51.814;4.510;2023-03-13T07:44:16;99694.53;;;9.49;100.00
11440;BME280;5776;51.814;4.510;2023-03-13T07:46:42;99686.91;;;9.51;100.00
11440;BME280;5776;51.814;4.510;2023-03-13T07:49:08;99685.97;;;9.56;100.00
11440;BME280;5776;51.814;4.510;2023-03-13T07:51:34;99695.69;;;9.57;100.00
11440;BME280;5776;51.814;4.510;2023-03-13T07:54:00;99700.94;;;9.54;100.00
11440;BME280;5776;51.814;4.510;2023-03-13T07:56:26;99697.75;;;9.51;100.00
11440;BME280;5776;51.814;4.510;2023-03-13T07:58:52;99696.44;;;9.49;100.00
11440;BME280;5776;51.814;4.510;2023-03-13T08:01:21;99698.16;;;9.45;100.00
11440;BME280;5776;51.814;4.510;2023-03-13T08:03:48;99689.84;;;9.41;100.00
11440;BME280;5776;51.814;4.510;2023-03-13T08:06:21;99687.78;;;9.38;100.00
11440;BME280;5776;51.814;4.510;2023-03-13T08:08:49;99675.31;;;9.37;100.00
11440;BME280;5776;51.814;4.510;2023-03-13T08:11:20;99685.34;;;9.37;100.00
11440;BME280;5776;51.814;4.510;2023-03-13T08:13:46;99668.97;;;9.42;100.00
11440;BME280;5776;51.814;4.510;2023-03-13T08:16:19;99676.31;;;9.41;100.00
11440;BME280;5776;51.814;4.510;2023-03-13T08:18:51;99664.19;;;9.39;100.00
11440;BME280;5776;51.814;4.510;2023-03-13T08:21:22;99659.25;;;9.41;100.00
11440;BME280;5776;51.814;4.510;2023-03-13T08:23:52;99649.22;;;9.41;100.00
11440;BME280;5776;51.814;4.510;2023-03-13T08:26:20;99650.63;;;9.39;100.00
11440;BME280;5776;51.814;4.510;2023-03-13T08:28:50;99662.44;;;9.43;100.00
11440;BME280;5776;51.814;4.510;2023-03-13T08:31:18;99657.00;;;9.43;100.00
11440;BME280;5776;51.814;4.510;2023-03-13T08:33:46;99657.84;;;9.43;100.00
11440;BME280;5776;51.814;4.510;2023-03-13T08:36:13;99657.22;;;9.46;100.00
11440;BME280;5776;51.814;4.510;2023-03-13T08:38:39;99659.59;;;9.48;100.00
11440;BME280;5776;51.814;4.510;2023-03-13T08:41:16;99660.22;;;9.45;100.00
11440;BME280;5776;51.814;4.510;2023-03-13T08:43:43;99643.16;;;9.44;100.00
11440;BME280;5776;51.814;4.510;2023-03-13T08:46:10;99643.16;;;9.44;100.00
11440;BME280;5776;51.814;4.510;2023-03-13T08:48:36;99626.91;;;9.44;100.00
11440;BME280;5776;51.814;4.510;2023-03-13T08:51:04;99631.41;;;9.49;100.00
11440;BME280;5776;51.814;4.510;2023-03-13T08:53:31;99622.16;;;9.50;100.00
11440;BME280;5776;51.814;4.510;2023-03-13T08:55:57;99611.81;;;9.52;100.00
11440;BME280;5776;51.814;4.510;2023-03-13T08:58:23;99613.88;;;9.55;100.00
11440;BME280;5776;51.814;4.510;2023-03-13T09:00:49;99611.53;;;9.62;100.00
11440;BME280;5776;51.814;4.510;2023-03-13T09:03:15;99604.53;;;9.61;100.00
11440;BME280;5776;51.814;4.510;2023-03-13T09:05:42;99609.94;;;9.61;100.00
11440;BME280;5776;51.814;4.510;2023-03-13T09:08:08;99597.97;;;9.62;100.00
11440;BME280;5776;51.814;4.510;2023-03-13T09:10:34;99610.75;;;9.62;100.00
11440;BME280;5776;51.814;4.510;2023-03-13T09:13:01;99595.75;;;9.64;100.00
11440;BME280;5776;51.814;4.510;2023-03-13T09:15:27;99596.06;;;9.63;100.00
11440;BME280;5776;51.814;4.510;2023-03-13T09:17:53;99592.75;;;9.66;100.00
11440;BME280;5776;51.814;4.510;2023-03-13T09:20:19;99587.78;;;9.68;100.00
11440;BME280;5776;51.814;4.510;2023-03-13T09:22:45;99587.78;;;9.68;100.00
11440;BME280;5776;51.814;4.510;2023-03-13T09:25:12;99589.09;;;9.70;100.00
11440;BME280;5776;51.814;4.510;2023-03-13T09:27:38;99591.19;;;9.73;100.00
11440;BME280;5776;51.814;4.510;2023-03-13T09:30:05;99586.56;;;9.74;100.00
11440;BME280;5776;51.814;4.510;2023-03-13T09:32:31;99574.28;;;9.77;100.00
11440;BME280;5776;51.814;4.510;2023-03-13T09:34:57;99575.09;;;9.77;100.00
11440;BME280;5776;51.814;4.510;2023-03-13T09:37:24;99566.81;;;9.82;100.00
11440;BME280;5776;51.814;4.510;2023-03-13T09:39:50;99576.06;;;9.81;100.00
11440;BME280;5776;51.814;4.510;2023-03-13T09:42:21;99564.44;;;9.81;100.00
11440;BME280;5776;51.814;4.510;2023-03-13T09:44:53;99572.44;;;9.86;100.00
11440;BME280;5776;51.814;4.510;2023-03-13T09:47:44;99557.75;;;9.87;100.00
11440;BME280;5776;51.814;4.510;2023-03-13T09:50:26;99558.53;;;9.87;100.00
11440;BME280;5776;51.814;4.510;2023-03-13T09:52:57;99551.69;;;9.90;100.00
11440;BME280;5776;51.814;4.510;2023-03-13T09:55:32;99545.47;;;9.89;100.00
11440;BME280;5776;51.814;4.510;2023-03-13T09:58:13;99536.69;;;9.92;100.00
11440;BME280;5776;51.814;4.510;2023-03-13T10:00:55;99529.69;;;9.91;100.00
11440;BME280;5776;51.814;4.510;2023-03-13T10:03:28;99536.69;;;9.92;100.00
11440;BME280;5776;51.814;4.510;2023-03-13T10:05:59;99530.97;;;9.94;100.00
11440;BME280;5776;51.814;4.510;2023-03-13T10:08:35;99527.13;;;9.95;100.00
11440;BME280;5776;51.814;4.510;2023-03-13T10:16:41;99522.03;;;10.02;100.00
11440;BME280;5776;51.814;4.510;2023-03-13T10:19:25;99488.75;;;10.36;100.00
11440;BME280;5776;51.814;4.510;2023-03-13T10:21:53;99521.66;;;10.52;100.00
11440;BME280;5776;51.814;4.510;2023-03-13T10:26:51;99522.28;;;10.67;100.00
11440;BME280;5776;51.814;4.510;2023-03-13T10:29:23;99507.91;;;10.66;100.00
11440;BME280;5776;51.814;4.510;2023-03-13T10:32:12;99525.00;;;10.67;100.00
11440;BME280;5776;51.814;4.510;2023-03-13T10:34:58;99523.41;;;10.74;100.00
11440;BME280;5776;51.814;4.510;2023-03-13T10:37:31;99520.50;;;10.88;100.00
11440;BME280;5776;51.814;4.510;2023-03-13T10:40:23;99508.19;;;10.91;100.00
11440;BME280;5776;51.814;4.510;2023-03-13T10:42:58;99503.72;;;10.95;100.00
11440;BME280;5776;51.814;4.510;2023-03-13T10:45:26;99506.13;;;10.96;100.00
11440;BME280;5776;51.814;4.510;2023-03-13T10:48:00;99512.81;;;10.99;100.00
11440;BME280;5776;51.814;4.510;2023-03-13T10:50:32;99493.94;;;11.02;100.00
11440;BME280;5776;51.814;4.510;2023-03-13T10:53:09;99500.34;;;11.07;100.00
11440;BME280;5776;51.814;4.510;2023-03-13T10:55:44;99482.72;;;11.13;100.00
11440;BME280;5776;51.814;4.510;2023-03-13T10:58:20;99490.72;;;11.18;100.00
11440;BME280;5776;51.814;4.510;2023-03-13T11:00:47;99501.75;;;11.21;100.00
11440;BME280;5776;51.814;4.510;2023-03-13T11:03:18;99491.34;;;11.23;100.00
11440;BME280;5776;51.814;4.510;2023-03-13T11:06:14;99479.34;;;11.24;100.00
11440;BME280;5776;51.814;4.510;2023-03-13T11:08:47;99474.53;;;11.30;100.00
11440;BME280;5776;51.814;4.510;2023-03-13T11:11:17;99471.63;;;11.35;100.00
11440;BME280;5776;51.814;4.510;2023-03-13T11:13:44;99476.09;;;11.40;100.00
11440;BME280;5776;51.814;4.510;2023-03-13T11:16:22;99490.28;;;11.45;100.00
11440;BME280;5776;51.814;4.510;2023-03-13T11:30:05;99485.66;;;11.46;100.00
11440;BME280;5776;51.814;4.510;2023-03-13T11:35:15;99483.59;;;11.43;100.00
11440;BME280;5776;51.814;4.510;2023-03-13T11:37:44;99478.50;;;11.41;100.00
11440;BME280;5776;51.814;4.510;2023-03-13T11:40:19;99477.84;;;11.44;100.00
11440;BME280;5776;51.814;4.510;2023-03-13T11:42:56;99471.75;;;11.48;100.00
11440;BME280;5776;51.814;4.510;2023-03-13T11:45:52;99473.00;;;11.50;100.00
11440;BME280;5776;51.814;4.510;2023-03-13T11:59:26;99464.66;;;11.85;100.00
11440;BME280;5776;51.814;4.510;2023-03-13T12:02:17;99457.63;;;11.84;100.00
11440;BME280;5776;51.814;4.510;2023-03-13T12:05:00;99448.06;;;11.86;100.00
11440;BME280;5776;51.814;4.510;2023-03-13T12:07:34;99462.44;;;11.87;100.00
11440;BME280;5776;51.814;4.510;2023-03-13T12:10:03;99450.91;;;11.90;100.00
11440;BME280;5776;51.814;4.510;2023-03-13T12:12:39;99461.66;;;11.86;100.00
11440;BME280;5776;51.814;4.510;2023-03-13T12:15:20;99445.56;;;11.94;100.00
11440;BME280;5776;51.814;4.510;2023-03-13T12:21:39;99454.88;;;12.14;100.00
11440;BME280;5776;51.814;4.510;2023-03-13T12:26:59;99465.03;;;12.25;100.00
11440;BME280;5776;51.814;4.510;2023-03-13T12:32:28;99460.59;;;12.21;100.00
11440;BME280;5776;51.814;4.510;2023-03-13T12:37:43;99454.56;;;12.15;100.00
11440;BME280;5776;51.814;4.510;2023-03-13T12:40:22;99449.78;;;12.12;100.00
11440;BME280;5776;51.814;4.510;2023-03-13T12:45:21;99449.44;;;12.14;100.00
11440;BME280;5776;51.814;4.510;2023-03-13T12:48:19;99443.47;;;12.20;100.00
11440;BME280;5776;51.814;4.510;2023-03-13T12:59:07;99446.00;;;12.25;100.00
11440;BME280;5776;51.814;4.510;2023-03-13T13:01:40;99447.13;;;12.24;100.00
11440;BME280;5776;51.814;4.510;2023-03-13T13:04:31;99455.78;;;12.26;100.00
11440;BME280;5776;51.814;4.510;2023-03-13T13:07:01;99430.91;;;12.28;100.00
11440;BME280;5776;51.814;4.510;2023-03-13T13:09:36;99434.31;;;12.25;100.00
11440;BME280;5776;51.814;4.510;2023-03-13T13:12:24;99435.91;;;12.26;100.00
11440;BME280;5776;51.814;4.510;2023-03-13T13:17:21;99436.84;;;12.30;100.00
11440;BME280;5776;51.814;4.510;2023-03-13T13:19:49;99442.75;;;12.32;100.00
11440;BME280;5776;51.814;4.510;2023-03-13T13:27:52;99433.31;;;12.29;100.00
11440;BME280;5776;51.814;4.510;2023-03-13T13:32:45;99440.34;;;12.30;100.00
11440;BME280;5776;51.814;4.510;2023-03-13T13:37:39;99436.84;;;12.30;100.00
11440;BME280;5776;51.814;4.510;2023-03-13T13:42:54;99422.91;;;12.31;100.00
11440;BME280;5776;51.814;4.510;2023-03-13T13:45:26;99421.75;;;12.32;100.00
11440;BME280;5776;51.814;4.510;2023-03-13T13:53:46;99403.16;;;12.35;100.00
11440;BME280;5776;51.814;4.510;2023-03-13T14:01:31;99395.69;;;12.31;100.00
11440;BME280;5776;51.814;4.510;2023-03-13T14:04:27;99390.44;;;12.26;100.00
11440;BME280;5776;51.814;4.510;2023-03-13T14:06:52;99372.66;;;12.29;100.00
11440;BME280;5776;51.814;4.510;2023-03-13T14:11:53;99377.53;;;12.36;100.00
11440;BME280;5776;51.814;4.510;2023-03-13T14:14:21;99376.41;;;12.37;100.00
11440;BME280;5776;51.814;4.510;2023-03-13T14:16:52;99368.69;;;12.39;100.00
11440;BME280;5776;51.814;4.510;2023-03-13T14:19:40;99367.31;;;12.32;100.00
11440;BME280;5776;51.814;4.510;2023-03-13T14:22:09;99359.16;;;12.32;100.00
11440;BME280;5776;51.814;4.510;2023-03-13T14:24:35;99349.84;;;12.33;100.00
11440;BME280;5776;51.814;4.510;2023-03-13T14:27:14;99346.22;;;12.29;100.00
11440;BME280;5776;51.814;4.510;2023-03-13T14:29:40;99346.69;;;12.31;100.00
11440;BME280;5776;51.814;4.510;2023-03-13T14:32:07;99340.88;;;12.33;100.00
11440;BME280;5776;51.814;4.510;2023-03-13T14:34:33;99331.91;;;12.32;100.00
11440;BME280;5776;51.814;4.510;2023-03-13T14:37:00;99338.84;;;12.30;100.00
11440;BME280;5776;51.814;4.510;2023-03-13T14:42:01;99336.91;;;12.30;100.00
11440;BME280;5776;51.814;4.510;2023-03-13T14:44:29;99333.38;;;12.30;100.00
11440;BME280;5776;51.814;4.510;2023-03-13T14:47:03;99322.19;;;12.31;100.00
11440;BME280;5776;51.814;4.510;2023-03-13T14:49:30;99324.91;;;12.31;100.00